Time;durP1;ratioP1;P1;durP2;ratioP2;P2;SDS_P1;SDS_P2;PMS_P1;PMS_P2;Temp;Humidity;BMP_temperature;BMP_pressure;BME280_temperature;BME280_humidity;BME280_pressure;Samples;Min_cycle;Max_cycle;Signal;HPM_P1;HPM_P2
2023/10/04 00:00:27;;;;;;;2.40;2.03;;;;;;;;;;5013431;28;20230;-72
2023/10/04 00:02:54;;;;;;;2.20;2.10;;;;;;;;;;5013543;28;20222;-72
2023/10/04 00:05:24;;;;;;;2.35;2.15;;;;;;;;;;5013400;28;20223;-71
2023/10/04 00:07:51;;;;;;;1.63;1.52;;;;;;;;;;5013697;28;20199;-71
2023/10/04 00:10:18;;;;;;;2.72;2.15;;;;;;;;;;5013303;28;20199;-71
2023/10/04 00:12:45;;;;;;;3.90;2.05;;;;;;;;;;5013792;28;20229;-71
2023/10/04 00:15:12;;;;;;;3.00;1.60;;;;;;;;;;5013243;28;20218;-71
2023/10/04 00:17:41;;;;;;;1.98;1.70;;;;;;;;;;5013265;28;20209;-72
2023/10/04 00:20:10;;;;;;;1.83;1.73;;;;;;;;;;5013213;28;20239;-71
2023/10/04 00:22:39;;;;;;;2.53;2.00;;;;;;;;;;5013344;28;20198;-72
2023/10/04 00:25:09;;;;;;;2.30;1.60;;;;;;;;;;5013198;28;20226;-71
2023/10/04 00:27:35;;;;;;;2.50;1.80;;;;;;;;;;5013297;28;20289;-71
2023/10/04 00:30:02;;;;;;;1.70;1.60;;;;;;;;;;5012938;28;20198;-71
2023/10/04 00:32:28;;;;;;;4.68;1.65;;;;;;;;;;5012971;28;20646;-71
2023/10/04 00:34:55;;;;;;;2.08;1.48;;;;;;;;;;5013253;28;20199;-71
2023/10/04 00:37:21;;;;;;;3.25;1.60;;;;;;;;;;5012989;28;20263;-71
2023/10/04 00:39:49;;;;;;;2.08;1.77;;;;;;;;;;5012891;28;20221;-71
2023/10/04 00:42:18;;;;;;;2.42;2.20;;;;;;;;;;5012810;28;20622;-71
2023/10/04 00:44:45;;;;;;;1.75;1.63;;;;;;;;;;5012660;28;20655;-71
2023/10/04 00:47:11;;;;;;;1.63;1.52;;;;;;;;;;5012812;28;20245;-71
2023/10/04 00:49:37;;;;;;;1.70;1.60;;;;;;;;;;5012716;28;20213;-71
2023/10/04 00:52:08;;;;;;;4.20;1.80;;;;;;;;;;5012773;28;20285;-71
2023/10/04 00:54:35;;;;;;;2.45;1.88;;;;;;;;;;5012754;28;20219;-71
2023/10/04 00:57:04;;;;;;;1.80;1.70;;;;;;;;;;5012447;28;20776;-71
2023/10/04 00:59:31;;;;;;;2.45;2.00;;;;;;;;;;5012368;28;20264;-71
2023/10/04 01:01:57;;;;;;;1.58;1.40;;;;;;;;;;5012702;28;20241;-71
2023/10/04 01:04:25;;;;;;;1.88;1.75;;;;;;;;;;5012652;28;20219;-71
2023/10/04 01:06:52;;;;;;;1.90;1.80;;;;;;;;;;5012346;28;20246;-71
2023/10/04 01:09:20;;;;;;;6.57;2.10;;;;;;;;;;5012459;28;20291;-71
2023/10/04 01:11:47;;;;;;;1.65;1.55;;;;;;;;;;5012405;28;20230;-72
2023/10/04 01:14:21;;;;;;;1.60;1.50;;;;;;;;;;5012392;28;20218;-71
2023/10/04 01:19:52;;;;;;;4.45;2.00;;;;;;;;;;5006983;28;20185;-72
2023/10/04 01:22:20;;;;;;;3.45;1.52;;;;;;;;;;5011987;28;20210;-71
2023/10/04 01:24:46;;;;;;;2.47;1.85;;;;;;;;;;5012051;28;20201;-71
2023/10/04 01:27:12;;;;;;;1.55;1.45;;;;;;;;;;5012075;28;20214;-71
2023/10/04 01:29:39;;;;;;;1.95;1.85;;;;;;;;;;5011997;28;20221;-71
2023/10/04 01:32:08;;;;;;;1.95;1.85;;;;;;;;;;5011843;28;20210;-71
2023/10/04 01:34:36;;;;;;;2.97;1.80;;;;;;;;;;5011911;28;20215;-71
2023/10/04 01:37:03;;;;;;;3.03;1.80;;;;;;;;;;5011799;28;20229;-72
2023/10/04 01:39:31;;;;;;;2.38;2.17;;;;;;;;;;5003880;28;20296;-72
2023/10/04 01:41:58;;;;;;;2.75;1.52;;;;;;;;;;5012111;28;20235;-72
2023/10/04 01:44:24;;;;;;;2.35;2.15;;;;;;;;;;5011769;28;20583;-72
2023/10/04 01:46:50;;;;;;;6.00;1.95;;;;;;;;;;5011729;28;20245;-71
2023/10/04 01:49:16;;;;;;;1.98;1.88;;;;;;;;;;5011624;28;20285;-71
2023/10/04 01:51:43;;;;;;;3.45;2.08;;;;;;;;;;5011774;28;20580;-71
2023/10/04 01:54:09;;;;;;;3.45;1.95;;;;;;;;;;5011616;28;20222;-71
2023/10/04 01:56:38;;;;;;;2.05;1.77;;;;;;;;;;5011511;28;20262;-71
2023/10/04 01:59:05;;;;;;;3.63;1.83;;;;;;;;;;5012068;28;20292;-71
2023/10/04 02:01:31;;;;;;;2.88;1.98;;;;;;;;;;5011742;28;20675;-71
2023/10/04 02:04:00;;;;;;;4.00;1.73;;;;;;;;;;5011742;28;20222;-71
2023/10/04 02:06:28;;;;;;;2.97;1.55;;;;;;;;;;5011518;28;21111;-71
2023/10/04 02:08:54;;;;;;;3.00;1.65;;;;;;;;;;5011519;28;20237;-71
2023/10/04 02:11:22;;;;;;;2.20;1.85;;;;;;;;;;5011530;28;20207;-71
2023/10/04 02:13:50;;;;;;;3.72;2.08;;;;;;;;;;5011479;28;20246;-71
2023/10/04 02:16:18;;;;;;;4.18;1.92;;;;;;;;;;5011293;28;20304;-71
2023/10/04 02:18:46;;;;;;;3.08;2.40;;;;;;;;;;5011943;28;20194;-71
2023/10/04 02:21:13;;;;;;;2.60;2.40;;;;;;;;;;5015499;28;20213;-71
2023/10/04 02:23:40;;;;;;;2.15;1.98;;;;;;;;;;5015552;28;20663;-71
2023/10/04 02:26:07;;;;;;;2.90;2.15;;;;;;;;;;5015287;28;20768;-71
2023/10/04 02:28:33;;;;;;;2.10;2.00;;;;;;;;;;5015306;28;20203;-71
2023/10/04 02:31:02;;;;;;;1.67;1.58;;;;;;;;;;5015292;28;20202;-71
2023/10/04 02:33:33;;;;;;;2.53;2.22;;;;;;;;;;5015551;28;20225;-71
2023/10/04 02:36:00;;;;;;;3.42;2.40;;;;;;;;;;5015721;28;20226;-71
2023/10/04 02:38:27;;;;;;;1.92;1.80;;;;;;;;;;5015123;28;20285;-71
2023/10/04 02:40:53;;;;;;;4.93;2.15;;;;;;;;;;5015347;28;20198;-72
2023/10/04 02:43:20;;;;;;;5.03;2.42;;;;;;;;;;5015155;28;20202;-71
2023/10/04 02:45:47;;;;;;;3.42;2.03;;;;;;;;;;5014960;28;20230;-71
2023/10/04 02:48:15;;;;;;;2.40;2.20;;;;;;;;;;5015091;28;20214;-72
2023/10/04 02:50:42;;;;;;;2.70;1.75;;;;;;;;;;5015042;28;20205;-71
2023/10/04 02:53:12;;;;;;;2.08;1.83;;;;;;;;;;5015005;28;20225;-72
2023/10/04 02:55:38;;;;;;;3.58;2.20;;;;;;;;;;5015023;28;20227;-71
2023/10/04 02:58:06;;;;;;;2.33;2.05;;;;;;;;;;5014790;28;20606;-71
2023/10/04 03:00:33;;;;;;;5.50;2.10;;;;;;;;;;5014721;28;20199;-71
2023/10/04 03:03:00;;;;;;;2.50;1.85;;;;;;;;;;5014917;28;20624;-71
2023/10/04 03:05:34;;;;;;;5.00;1.85;;;;;;;;;;5014500;28;20607;-71
2023/10/04 03:08:06;;;;;;;3.97;2.10;;;;;;;;;;5015032;28;20590;-71
2023/10/04 03:10:33;;;;;;;5.28;2.50;;;;;;;;;;5014509;28;20234;-71
2023/10/04 03:13:01;;;;;;;4.45;2.17;;;;;;;;;;5014651;28;20206;-71
2023/10/04 03:15:28;;;;;;;6.05;2.20;;;;;;;;;;5014441;28;20237;-71
2023/10/04 03:17:54;;;;;;;2.22;2.05;;;;;;;;;;5014564;28;20206;-71
2023/10/04 03:20:23;;;;;;;5.43;2.38;;;;;;;;;;5014289;28;20221;-71
2023/10/04 03:22:51;;;;;;;2.63;1.90;;;;;;;;;;5014843;28;20198;-71
2023/10/04 03:25:18;;;;;;;2.67;2.10;;;;;;;;;;5014137;28;20222;-71
2023/10/04 03:27:47;;;;;;;2.95;2.22;;;;;;;;;;5014499;28;20199;-71
2023/10/04 03:30:17;;;;;;;2.38;2.03;;;;;;;;;;5013944;28;20667;-71
2023/10/04 03:32:44;;;;;;;2.35;2.15;;;;;;;;;;5014553;28;20285;-71
2023/10/04 03:35:14;;;;;;;2.42;2.22;;;;;;;;;;5014081;28;20230;-72
2023/10/04 03:37:47;;;;;;;4.95;1.90;;;;;;;;;;5014173;28;20233;-72
2023/10/04 03:40:17;;;;;;;2.50;2.30;;;;;;;;;;5013973;28;20728;-71
2023/10/04 03:42:44;;;;;;;2.35;1.90;;;;;;;;;;5014229;28;20298;-71
2023/10/04 03:45:11;;;;;;;5.82;2.13;;;;;;;;;;5014052;28;20225;-71
2023/10/04 03:47:38;;;;;;;4.63;2.33;;;;;;;;;;5013798;28;20584;-71
2023/10/04 03:50:06;;;;;;;4.40;2.50;;;;;;;;;;5014209;28;20309;-72
2023/10/04 03:52:33;;;;;;;3.78;2.50;;;;;;;;;;5013819;28;20209;-71
2023/10/04 03:54:59;;;;;;;3.20;2.30;;;;;;;;;;5013944;28;20222;-71
2023/10/04 03:57:28;;;;;;;7.10;2.40;;;;;;;;;;5013711;28;20241;-71
2023/10/04 03:59:53;;;;;;;4.80;2.40;;;;;;;;;;5013598;28;20203;-71
2023/10/04 04:02:20;;;;;;;2.45;2.20;;;;;;;;;;5013806;28;20569;-71
2023/10/04 04:04:47;;;;;;;3.67;2.47;;;;;;;;;;5013503;28;20205;-71
2023/10/04 04:07:13;;;;;;;2.40;2.17;;;;;;;;;;5013706;28;20225;-71
2023/10/04 04:09:40;;;;;;;3.13;2.30;;;;;;;;;;5013575;28;20194;-71
2023/10/04 04:12:06;;;;;;;3.25;2.20;;;;;;;;;;5013779;28;20203;-71
2023/10/04 04:14:34;;;;;;;4.25;2.25;;;;;;;;;;5013278;28;20709;-71
2023/10/04 04:17:00;;;;;;;2.53;2.20;;;;;;;;;;5013401;28;20218;-71
2023/10/04 04:19:27;;;;;;;2.30;2.10;;;;;;;;;;5013141;28;20198;-71
2023/10/04 04:21:57;;;;;;;3.80;2.40;;;;;;;;;;5013582;28;20199;-71
2023/10/04 04:24:25;;;;;;;5.78;2.65;;;;;;;;;;5013380;28;20249;-71
2023/10/04 04:26:58;;;;;;;2.78;1.90;;;;;;;;;;5013156;28;20222;-71
2023/10/04 04:29:24;;;;;;;2.78;2.13;;;;;;;;;;5012990;28;20289;-71
2023/10/04 04:31:53;;;;;;;2.33;2.15;;;;;;;;;;5013212;28;20202;-71
2023/10/04 04:34:19;;;;;;;3.63;2.30;;;;;;;;;;5013409;28;20310;-71
2023/10/04 04:36:46;;;;;;;2.83;2.17;;;;;;;;;;5013027;28;20223;-72
2023/10/04 04:39:18;;;;;;;6.03;2.50;;;;;;;;;;5013072;28;20309;-72
2023/10/04 04:41:45;;;;;;;2.35;2.15;;;;;;;;;;5012467;28;20194;-72
2023/10/04 04:44:17;;;;;;;2.72;2.53;;;;;;;;;;5013004;28;20221;-72
2023/10/04 04:46:47;;;;;;;4.57;2.22;;;;;;;;;;5012624;28;20226;-73
2023/10/04 04:49:15;;;;;;;8.38;2.45;;;;;;;;;;5012799;28;20203;-71
2023/10/04 04:51:41;;;;;;;5.47;2.22;;;;;;;;;;5012634;28;20206;-71
2023/10/04 04:54:10;;;;;;;2.40;2.20;;;;;;;;;;5012784;28;20222;-71
2023/10/04 04:56:37;;;;;;;2.42;2.10;;;;;;;;;;5012452;28;20226;-71
2023/10/04 04:59:07;;;;;;;5.18;2.17;;;;;;;;;;5012394;28;20203;-71
2023/10/04 05:01:34;;;;;;;3.58;2.40;;;;;;;;;;5012594;28;20205;-71
2023/10/04 05:04:00;;;;;;;2.40;2.22;;;;;;;;;;5012717;28;20210;-71
2023/10/04 05:06:28;;;;;;;2.17;2.08;;;;;;;;;;5012330;28;20359;-61
2023/10/04 05:08:56;;;;;;;4.35;2.47;;;;;;;;;;5012201;28;20233;-61
2023/10/04 05:11:23;;;;;;;3.60;1.98;;;;;;;;;;5012167;28;20202;-63
2023/10/04 05:13:51;;;;;;;2.30;2.10;;;;;;;;;;5004104;28;20671;-62
2023/10/04 05:16:17;;;;;;;2.40;2.20;;;;;;;;;;5012483;28;20337;-62
2023/10/04 05:18:43;;;;;;;3.85;2.65;;;;;;;;;;5012179;28;20209;-63
2023/10/04 05:21:10;;;;;;;3.78;2.60;;;;;;;;;;5012452;28;20210;-62
2023/10/04 05:23:38;;;;;;;2.55;2.35;;;;;;;;;;5012290;28;20738;-62
2023/10/04 05:26:05;;;;;;;6.10;2.88;;;;;;;;;;5012015;28;20660;-62
2023/10/04 05:28:31;;;;;;;6.55;2.70;;;;;;;;;;5012471;28;20209;-62
2023/10/04 05:30:57;;;;;;;3.72;2.38;;;;;;;;;;5012215;28;20221;-62
2023/10/04 05:33:24;;;;;;;3.20;2.45;;;;;;;;;;5011958;28;20702;-61
2023/10/04 05:35:53;;;;;;;8.70;2.90;;;;;;;;;;5011778;28;20214;-62
2023/10/04 05:38:19;;;;;;;2.55;2.35;;;;;;;;;;5012348;28;20213;-62
2023/10/04 05:40:47;;;;;;;3.53;2.67;;;;;;;;;;5011388;28;20237;-62
2023/10/04 05:43:14;;;;;;;4.13;2.55;;;;;;;;;;5012147;28;20230;-61
2023/10/04 05:45:42;;;;;;;3.53;3.05;;;;;;;;;;5011722;28;20214;-63
2023/10/04 05:48:09;;;;;;;3.45;2.78;;;;;;;;;;5011759;28;20254;-62
2023/10/04 05:50:35;;;;;;;7.10;3.13;;;;;;;;;;5011403;28;20253;-62
2023/10/04 05:53:05;;;;;;;6.38;2.80;;;;;;;;;;5011396;28;20213;-62
2023/10/04 05:55:32;;;;;;;3.30;2.65;;;;;;;;;;5010981;28;20230;-62
2023/10/04 05:58:00;;;;;;;3.58;2.97;;;;;;;;;;5011750;28;20234;-62
2023/10/04 06:00:27;;;;;;;12.55;3.03;;;;;;;;;;5011483;28;20199;-61
2023/10/04 06:02:54;;;;;;;4.97;2.70;;;;;;;;;;5011751;28;20261;-62
2023/10/04 06:05:22;;;;;;;4.68;2.35;;;;;;;;;;5011446;28;20229;-62
2023/10/04 06:07:48;;;;;;;3.17;2.88;;;;;;;;;;5011287;28;20210;-62
2023/10/04 06:10:15;;;;;;;5.88;2.72;;;;;;;;;;5011491;28;20213;-62
2023/10/04 06:12:41;;;;;;;2.88;2.58;;;;;;;;;;5011439;28;20210;-62
2023/10/04 06:15:13;;;;;;;3.65;3.33;;;;;;;;;;5011432;28;20230;-62
2023/10/04 06:17:42;;;;;;;5.82;3.50;;;;;;;;;;5011423;28;20265;-62
2023/10/04 06:20:23;;;;;;;5.93;3.00;;;;;;;;;;5011135;28;20293;-61
2023/10/04 06:22:50;;;;;;;9.70;3.13;;;;;;;;;;5011325;28;20719;-62
2023/10/04 06:25:16;;;;;;;5.20;3.20;;;;;;;;;;5011689;28;20380;-63
2023/10/04 06:27:43;;;;;;;8.25;3.45;;;;;;;;;;5011226;28;20202;-62
2023/10/04 06:30:11;;;;;;;6.68;3.47;;;;;;;;;;5011221;28;20203;-62
2023/10/04 06:32:38;;;;;;;8.90;3.85;;;;;;;;;;5011030;28;20217;-62
2023/10/04 06:35:04;;;;;;;10.27;3.65;;;;;;;;;;5011198;28;20702;-61
2023/10/04 06:37:31;;;;;;;8.40;3.47;;;;;;;;;;5011454;28;20317;-63
2023/10/04 06:39:57;;;;;;;7.40;3.45;;;;;;;;;;5011116;28;20207;-62
2023/10/04 06:42:23;;;;;;;11.75;3.85;;;;;;;;;;5011194;28;20209;-62
2023/10/04 06:44:49;;;;;;;13.05;4.28;;;;;;;;;;5011031;28;20289;-62
2023/10/04 06:47:18;;;;;;;11.73;3.67;;;;;;;;;;5010945;28;20206;-62
2023/10/04 06:49:44;;;;;;;15.05;3.78;;;;;;;;;;5010983;28;20221;-63
2023/10/04 06:52:10;;;;;;;13.52;3.60;;;;;;;;;;5011142;28;20202;-62
2023/10/04 06:54:37;;;;;;;6.22;3.42;;;;;;;;;;5002582;28;20214;-62
2023/10/04 06:57:03;;;;;;;11.93;3.75;;;;;;;;;;5006159;28;20256;-61
2023/10/04 06:59:30;;;;;;;8.38;3.60;;;;;;;;;;5005368;28;20458;-61
2023/10/04 07:01:56;;;;;;;8.30;3.55;;;;;;;;;;5005524;28;21221;-60
2023/10/04 07:04:24;;;;;;;10.18;3.72;;;;;;;;;;5009194;28;20236;-61
2023/10/04 07:06:50;;;;;;;6.28;3.03;;;;;;;;;;5009902;28;20234;-60
2023/10/04 07:09:17;;;;;;;7.78;3.47;;;;;;;;;;5008628;28;20213;-61
2023/10/04 07:11:43;;;;;;;6.25;2.95;;;;;;;;;;5009388;28;20276;-62
2023/10/04 07:14:10;;;;;;;5.72;3.10;;;;;;;;;;5015648;28;20703;-62
2023/10/04 07:16:36;;;;;;;7.40;3.40;;;;;;;;;;5005088;28;20339;-61
2023/10/04 07:19:03;;;;;;;3.38;2.83;;;;;;;;;;5005231;28;20719;-62
2023/10/04 07:21:31;;;;;;;3.20;2.85;;;;;;;;;;5005764;28;20551;-61
2023/10/04 07:23:57;;;;;;;5.20;2.63;;;;;;;;;;5008390;28;20689;-61
2023/10/04 07:26:24;;;;;;;6.25;3.40;;;;;;;;;;5006938;28;20230;-61
2023/10/04 07:28:50;;;;;;;5.00;2.83;;;;;;;;;;5006391;28;20257;-61
2023/10/04 07:31:17;;;;;;;4.80;3.10;;;;;;;;;;5006361;28;20211;-61
2023/10/04 07:33:44;;;;;;;4.65;2.35;;;;;;;;;;5007135;28;20210;-63
2023/10/04 07:36:10;;;;;;;3.92;2.58;;;;;;;;;;5006761;28;20233;-63
2023/10/04 07:38:38;;;;;;;2.95;2.67;;;;;;;;;;5006631;28;20708;-64
2023/10/04 07:41:05;;;;;;;3.22;2.65;;;;;;;;;;5007283;28;20211;-64
2023/10/04 07:43:32;;;;;;;5.35;2.90;;;;;;;;;;5006907;28;20214;-61
2023/10/04 07:45:59;;;;;;;2.70;2.50;;;;;;;;;;5007194;28;20226;-61
2023/10/04 07:48:25;;;;;;;3.53;2.58;;;;;;;;;;5008666;28;20637;-61
2023/10/04 07:50:51;;;;;;;6.20;2.92;;;;;;;;;;5008881;28;20210;-62
2023/10/04 07:53:21;;;;;;;4.68;2.75;;;;;;;;;;5007183;28;20218;-62
2023/10/04 07:55:50;;;;;;;5.85;2.90;;;;;;;;;;5007050;28;20223;-61
2023/10/04 07:58:17;;;;;;;5.63;2.88;;;;;;;;;;5007107;28;20518;-62
2023/10/04 08:00:43;;;;;;;5.80;2.95;;;;;;;;;;5006298;28;20213;-63
2023/10/04 08:03:09;;;;;;;2.80;2.55;;;;;;;;;;5006077;28;20305;-64
2023/10/04 08:05:36;;;;;;;4.00;2.85;;;;;;;;;;5006576;28;20218;-63
2023/10/04 08:08:03;;;;;;;4.10;3.00;;;;;;;;;;5005791;28;20602;-63
2023/10/04 08:10:30;;;;;;;3.00;2.50;;;;;;;;;;5006238;28;20218;-61
2023/10/04 08:12:59;;;;;;;4.32;2.80;;;;;;;;;;5006117;28;20202;-62
2023/10/04 08:15:26;;;;;;;5.57;2.55;;;;;;;;;;5008639;28;20226;-63
2023/10/04 08:17:54;;;;;;;3.17;2.60;;;;;;;;;;5005190;28;20202;-62
2023/10/04 08:20:21;;;;;;;3.03;2.67;;;;;;;;;;5007071;28;20297;-61
2023/10/04 08:22:48;;;;;;;5.45;2.88;;;;;;;;;;5005807;28;20644;-62
2023/10/04 08:25:16;;;;;;;5.80;3.00;;;;;;;;;;5006108;28;20220;-63
2023/10/04 08:27:42;;;;;;;5.25;2.67;;;;;;;;;;5006483;28;20273;-63
2023/10/04 08:30:12;;;;;;;6.68;2.97;;;;;;;;;;5006813;28;20210;-63
2023/10/04 08:32:40;;;;;;;4.00;2.67;;;;;;;;;;5005931;28;20265;-62
2023/10/04 08:35:07;;;;;;;7.65;2.88;;;;;;;;;;5006164;28;20242;-62
2023/10/04 08:37:34;;;;;;;2.83;2.55;;;;;;;;;;5006218;28;20691;-62
2023/10/04 08:40:01;;;;;;;2.85;2.65;;;;;;;;;;5005500;28;20493;-62
2023/10/04 08:42:28;;;;;;;4.82;2.47;;;;;;;;;;5005877;28;20214;-62
2023/10/04 08:44:54;;;;;;;3.35;2.78;;;;;;;;;;5006449;28;20269;-62
2023/10/04 08:47:24;;;;;;;3.92;3.00;;;;;;;;;;5006074;28;20593;-62
2023/10/04 08:49:53;;;;;;;3.92;2.38;;;;;;;;;;5010367;28;20234;-62
2023/10/04 08:52:21;;;;;;;4.30;3.05;;;;;;;;;;5005789;28;20207;-62
2023/10/04 08:54:51;;;;;;;5.93;2.90;;;;;;;;;;5005854;28;20233;-62
2023/10/04 08:57:20;;;;;;;4.93;2.58;;;;;;;;;;5005261;28;20305;-63
2023/10/04 08:59:47;;;;;;;2.97;2.35;;;;;;;;;;5005156;28;20213;-63
2023/10/04 09:02:14;;;;;;;5.78;2.83;;;;;;;;;;4997653;28;20207;-63
2023/10/04 09:04:42;;;;;;;8.68;2.78;;;;;;;;;;5005492;28;20207;-63
2023/10/04 09:07:09;;;;;;;3.95;2.70;;;;;;;;;;5005239;28;20222;-63
2023/10/04 09:09:38;;;;;;;6.05;2.50;;;;;;;;;;5005986;28;20618;-61
2023/10/04 09:12:06;;;;;;;5.35;2.50;;;;;;;;;;5004800;28;20210;-63
2023/10/04 09:14:33;;;;;;;6.43;2.20;;;;;;;;;;5005563;28;20554;-61
2023/10/04 09:17:06;;;;;;;4.18;2.55;;;;;;;;;;5004902;28;20226;-62
2023/10/04 09:19:32;;;;;;;8.00;2.80;;;;;;;;;;5005073;28;20226;-61
2023/10/04 09:22:04;;;;;;;6.50;2.63;;;;;;;;;;5005296;28;20274;-63
2023/10/04 09:24:30;;;;;;;3.72;2.60;;;;;;;;;;5003833;28;20202;-62
2023/10/04 09:26:57;;;;;;;6.53;2.20;;;;;;;;;;5005140;28;20249;-62
2023/10/04 09:29:30;;;;;;;6.43;2.75;;;;;;;;;;5004544;28;20202;-62
2023/10/04 09:31:56;;;;;;;2.85;2.30;;;;;;;;;;5004066;28;20761;-60
2023/10/04 09:34:23;;;;;;;3.45;2.17;;;;;;;;;;5004191;28;20691;-64
2023/10/04 09:36:51;;;;;;;7.38;2.20;;;;;;;;;;5005252;28;20303;-62
2023/10/04 09:39:23;;;;;;;6.13;2.50;;;;;;;;;;4997372;28;20313;-63
2023/10/04 09:41:50;;;;;;;4.93;1.83;;;;;;;;;;5005358;28;20373;-63
2023/10/04 09:44:24;;;;;;;8.25;2.53;;;;;;;;;;5004724;28;20202;-63
2023/10/04 09:46:54;;;;;;;8.70;2.40;;;;;;;;;;5004604;28;20277;-63
2023/10/04 09:49:20;;;;;;;4.78;2.25;;;;;;;;;;5003824;28;20214;-62
2023/10/04 09:51:48;;;;;;;3.10;1.95;;;;;;;;;;5004152;28;20207;-62
2023/10/04 09:54:16;;;;;;;8.73;2.22;;;;;;;;;;5004772;28;20207;-61
2023/10/04 09:56:44;;;;;;;7.78;2.13;;;;;;;;;;5004344;28;20222;-64
2023/10/04 09:59:11;;;;;;;7.35;2.25;;;;;;;;;;5003963;28;20206;-62
2023/10/04 10:01:38;;;;;;;3.97;2.10;;;;;;;;;;5004967;28;20210;-61
2023/10/04 10:04:08;;;;;;;3.58;2.13;;;;;;;;;;5003816;28;20210;-63
2023/10/04 10:06:39;;;;;;;7.60;1.92;;;;;;;;;;5004261;28;20222;-63
2023/10/04 10:09:08;;;;;;;6.70;2.25;;;;;;;;;;5004210;28;20252;-63
2023/10/04 10:11:35;;;;;;;5.95;2.10;;;;;;;;;;5004145;28;20210;-61
2023/10/04 10:14:04;;;;;;;3.78;1.52;;;;;;;;;;5004394;28;20206;-62
2023/10/04 10:16:32;;;;;;;3.08;1.80;;;;;;;;;;5004073;28;20249;-59
2023/10/04 10:18:58;;;;;;;6.22;1.90;;;;;;;;;;5003624;28;20210;-60
2023/10/04 10:21:39;;;;;;;6.63;2.08;;;;;;;;;;5004407;28;20206;-61
2023/10/04 10:24:14;;;;;;;4.85;1.60;;;;;;;;;;5003794;28;20210;-62
2023/10/04 10:26:41;;;;;;;6.70;1.60;;;;;;;;;;5004412;28;20218;-62
2023/10/04 10:29:20;;;;;;;2.13;1.55;;;;;;;;;;5003788;28;20207;-61
2023/10/04 10:31:53;;;;;;;5.10;1.58;;;;;;;;;;5004315;28;20210;-60
2023/10/04 10:34:19;;;;;;;4.53;1.80;;;;;;;;;;5004090;28;20214;-62
2023/10/04 10:36:45;;;;;;;6.00;1.60;;;;;;;;;;5004051;28;20222;-62
2023/10/04 10:39:24;;;;;;;6.22;1.50;;;;;;;;;;5003803;28;20213;-62
2023/10/04 10:41:59;;;;;;;6.10;1.70;;;;;;;;;;5008102;28;20206;-62
2023/10/04 10:44:30;;;;;;;2.05;1.27;;;;;;;;;;5004590;28;20206;-62
2023/10/04 10:46:57;;;;;;;5.55;1.30;;;;;;;;;;5007706;28;20598;-62
2023/10/04 10:49:39;;;;;;;6.13;1.92;;;;;;;;;;5008210;28;20211;-62
2023/10/04 10:52:07;;;;;;;5.85;2.80;;;;;;;;;;5007996;28;20237;-62
2023/10/04 10:54:36;;;;;;;4.30;1.90;;;;;;;;;;5008020;28;20229;-62
2023/10/04 10:57:02;;;;;;;5.13;1.65;;;;;;;;;;5007025;28;20595;-63
2023/10/04 10:59:30;;;;;;;3.67;1.58;;;;;;;;;;5007254;28;20217;-63
2023/10/04 11:01:58;;;;;;;4.40;1.58;;;;;;;;;;5007582;28;20217;-62
2023/10/04 11:04:24;;;;;;;5.35;1.48;;;;;;;;;;5007617;28;20289;-63
2023/10/04 11:06:51;;;;;;;4.13;1.35;;;;;;;;;;5007491;28;20226;-63
2023/10/04 11:09:20;;;;;;;2.53;1.35;;;;;;;;;;5006579;28;20703;-63
2023/10/04 11:11:47;;;;;;;4.90;1.40;;;;;;;;;;5008039;28;20582;-63
2023/10/04 11:14:16;;;;;;;2.13;1.10;;;;;;;;;;5007242;28;20578;-62
2023/10/04 11:16:44;;;;;;;2.20;1.40;;;;;;;;;;5007264;28;20288;-62
2023/10/04 11:19:12;;;;;;;2.88;1.33;;;;;;;;;;5007254;28;20219;-62
2023/10/04 11:21:38;;;;;;;6.20;1.67;;;;;;;;;;5007001;28;20210;-61
2023/10/04 11:24:05;;;;;;;4.25;1.25;;;;;;;;;;5007674;28;20217;-62
2023/10/04 11:26:32;;;;;;;5.53;1.52;;;;;;;;;;5006550;28;20284;-62
2023/10/04 11:28:59;;;;;;;1.92;1.20;;;;;;;;;;5007550;28;20643;-61
2023/10/04 11:31:26;;;;;;;3.42;1.30;;;;;;;;;;5007000;28;20304;-61
2023/10/04 11:33:55;;;;;;;1.77;1.50;;;;;;;;;;5007355;28;20218;-61
2023/10/04 11:36:22;;;;;;;6.00;1.13;;;;;;;;;;5006653;28;20304;-63
2023/10/04 11:38:49;;;;;;;3.17;1.30;;;;;;;;;;5007128;28;20242;-63
2023/10/04 11:41:16;;;;;;;2.05;1.50;;;;;;;;;;5006820;28;20221;-63
2023/10/04 11:43:44;;;;;;;2.78;1.20;;;;;;;;;;5006860;28;20214;-63
2023/10/04 11:46:10;;;;;;;4.28;1.67;;;;;;;;;;5007136;28;20726;-63
2023/10/04 11:48:36;;;;;;;2.13;1.20;;;;;;;;;;5007872;28;20202;-63
2023/10/04 11:51:04;;;;;;;3.25;1.50;;;;;;;;;;5006736;28;20217;-63
2023/10/04 11:53:31;;;;;;;4.68;1.65;;;;;;;;;;5007067;28;20210;-63
2023/10/04 11:55:57;;;;;;;2.25;1.33;;;;;;;;;;5007036;28;20797;-62
2023/10/04 11:58:24;;;;;;;3.63;1.55;;;;;;;;;;5007558;28;20218;-61
2023/10/04 12:01:03;;;;;;;4.65;1.63;;;;;;;;;;5006753;28;20563;-61
2023/10/04 12:03:29;;;;;;;5.45;1.40;;;;;;;;;;5006612;28;20289;-61
2023/10/04 12:05:56;;;;;;;5.53;1.50;;;;;;;;;;5006112;28;20226;-62
2023/10/04 12:08:23;;;;;;;3.42;1.10;;;;;;;;;;5006135;28;21307;-62
2023/10/04 12:10:50;;;;;;;4.38;1.63;;;;;;;;;;5013239;28;20210;-64
2023/10/04 12:13:16;;;;;;;5.35;1.58;;;;;;;;;;5006448;28;20214;-63
2023/10/04 12:15:42;;;;;;;3.63;1.50;;;;;;;;;;5006815;28;20222;-62
2023/10/04 12:18:09;;;;;;;1.52;1.40;;;;;;;;;;5005703;28;20312;-64
2023/10/04 12:20:36;;;;;;;3.42;1.40;;;;;;;;;;5006695;28;20216;-64
2023/10/04 12:23:02;;;;;;;3.10;1.35;;;;;;;;;;5006072;28;20233;-64
2023/10/04 12:25:31;;;;;;;2.22;1.33;;;;;;;;;;5006052;28;20235;-64
2023/10/04 12:27:57;;;;;;;3.13;1.35;;;;;;;;;;5005896;28;20221;-61
2023/10/04 12:30:27;;;;;;;2.97;1.40;;;;;;;;;;5005917;28;20207;-66
2023/10/04 12:32:54;;;;;;;3.28;1.27;;;;;;;;;;5006286;28;20309;-62
2023/10/04 12:35:21;;;;;;;3.67;1.33;;;;;;;;;;5006086;28;20226;-62
2023/10/04 12:37:47;;;;;;;1.50;1.05;;;;;;;;;;5006249;28;20547;-62
2023/10/04 12:40:23;;;;;;;4.22;1.40;;;;;;;;;;5006522;28;20241;-62
2023/10/04 12:42:51;;;;;;;2.85;1.27;;;;;;;;;;5006158;28;20646;-60
2023/10/04 12:45:17;;;;;;;3.17;1.40;;;;;;;;;;5006366;28;20234;-62
2023/10/04 12:47:44;;;;;;;2.92;1.35;;;;;;;;;;5005676;28;20202;-60
2023/10/04 12:50:14;;;;;;;3.58;1.38;;;;;;;;;;5006249;28;20237;-63
2023/10/04 12:52:41;;;;;;;3.70;1.13;;;;;;;;;;5005604;28;20568;-62
2023/10/04 12:55:08;;;;;;;2.58;1.13;;;;;;;;;;5011100;28;20706;-63
2023/10/04 12:57:34;;;;;;;2.25;1.23;;;;;;;;;;5008552;28;20221;-64
2023/10/04 13:00:11;;;;;;;2.03;1.08;;;;;;;;;;5008784;28;20230;-63
2023/10/04 13:02:38;;;;;;;2.67;1.17;;;;;;;;;;5005471;28;20458;-63
2023/10/04 13:05:05;;;;;;;3.95;1.30;;;;;;;;;;5007944;28;20216;-63
2023/10/04 13:07:32;;;;;;;1.48;1.25;;;;;;;;;;5005945;28;20222;-64
2023/10/04 13:10:00;;;;;;;4.97;1.52;;;;;;;;;;5005292;28;20635;-62
2023/10/04 13:12:26;;;;;;;3.90;1.30;;;;;;;;;;5005538;28;20236;-62
2023/10/04 13:14:55;;;;;;;4.97;1.38;;;;;;;;;;5005223;28;20212;-62
2023/10/04 13:17:22;;;;;;;1.92;1.13;;;;;;;;;;5004730;28;20241;-63
2023/10/04 13:19:49;;;;;;;1.85;1.15;;;;;;;;;;5004914;28;20205;-64
2023/10/04 13:22:15;;;;;;;2.90;1.17;;;;;;;;;;5004682;28;20687;-63
2023/10/04 13:24:41;;;;;;;3.40;1.45;;;;;;;;;;5005260;28;20214;-63
2023/10/04 13:27:08;;;;;;;2.72;1.25;;;;;;;;;;5004872;28;20717;-63
2023/10/04 13:29:35;;;;;;;1.98;1.50;;;;;;;;;;5004219;28;20210;-64
2023/10/04 13:32:02;;;;;;;3.67;1.40;;;;;;;;;;5005049;28;20261;-63
2023/10/04 13:34:30;;;;;;;2.38;1.20;;;;;;;;;;5004964;28;20213;-63
2023/10/04 13:36:56;;;;;;;3.63;1.30;;;;;;;;;;5004620;28;20324;-61
2023/10/04 13:39:23;;;;;;;0.98;0.98;;;;;;;;;;5004544;28;20221;-64
2023/10/04 13:41:50;;;;;;;1.92;0.95;;;;;;;;;;5004585;28;20280;-63
2023/10/04 13:44:18;;;;;;;2.67;1.08;;;;;;;;;;5004515;28;20242;-64
2023/10/04 13:46:45;;;;;;;3.47;1.20;;;;;;;;;;5004838;28;20218;-62
2023/10/04 13:49:12;;;;;;;1.52;1.10;;;;;;;;;;5005446;28;20237;-62
2023/10/04 13:51:40;;;;;;;2.75;1.30;;;;;;;;;;5005191;28;20608;-62
2023/10/04 13:54:07;;;;;;;5.40;1.38;;;;;;;;;;5004916;28;20572;-60
2023/10/04 13:56:35;;;;;;;2.20;1.20;;;;;;;;;;5004415;28;20850;-63
2023/10/04 13:59:01;;;;;;;4.10;1.10;;;;;;;;;;5005039;28;20215;-63
2023/10/04 14:01:28;;;;;;;1.85;1.13;;;;;;;;;;5004873;28;20214;-62
2023/10/04 14:03:54;;;;;;;3.50;1.40;;;;;;;;;;5004097;28;20206;-62
2023/10/04 14:06:21;;;;;;;5.05;1.30;;;;;;;;;;5004764;28;20229;-62
2023/10/04 14:08:51;;;;;;;3.92;1.40;;;;;;;;;;5003956;28;20517;-61
2023/10/04 14:11:17;;;;;;;3.63;1.38;;;;;;;;;;5004868;28;20220;-63
2023/10/04 14:13:44;;;;;;;2.67;1.10;;;;;;;;;;5006346;28;20242;-62
2023/10/04 14:16:12;;;;;;;1.30;1.00;;;;;;;;;;5005638;28;20776;-62
2023/10/04 14:18:42;;;;;;;2.72;1.42;;;;;;;;;;5005522;28;20221;-62
2023/10/04 14:21:09;;;;;;;1.42;1.00;;;;;;;;;;5006009;28;20214;-61
2023/10/04 14:23:37;;;;;;;1.55;1.20;;;;;;;;;;5006048;28;20210;-62
2023/10/04 14:26:05;;;;;;;2.20;1.25;;;;;;;;;;5005956;28;20726;-61
2023/10/04 14:28:32;;;;;;;2.10;1.00;;;;;;;;;;5005888;28;20212;-62
2023/10/04 14:31:00;;;;;;;1.20;1.08;;;;;;;;;;5006208;28;20221;-62
2023/10/04 14:33:26;;;;;;;1.80;1.17;;;;;;;;;;5005514;28;20621;-62
2023/10/04 14:35:53;;;;;;;3.50;1.27;;;;;;;;;;5005839;28;20237;-63
2023/10/04 14:38:19;;;;;;;2.63;1.40;;;;;;;;;;5005883;28;20222;-63
2023/10/04 14:40:46;;;;;;;2.75;1.02;;;;;;;;;;5005772;28;20210;-62
2023/10/04 14:43:14;;;;;;;2.97;1.10;;;;;;;;;;5006057;28;20297;-63
2023/10/04 14:45:40;;;;;;;1.52;0.80;;;;;;;;;;5005866;28;20227;-62
2023/10/04 14:48:06;;;;;;;2.58;0.90;;;;;;;;;;5005752;28;20562;-62